x

Virginia Beach 64 Nm East Of Virginia Beach, Va (44014) Wave Buoy

7:50am - Fri 27th Mar 2015 All times are EDT. -4 hours from GMT.

  • Sig Wave height 7.5ft
  • Swell Direction
  • Peak Period 9s
  • Average Period 7s
  • Wind
    25mph, 29mph gusts
  • Sea Temp 51°f
  • 空気 Temp 50°f
  • Sea Pressure 1004.5mb
  • Virginia Beach 64 Nm East Of Virginia Beach, Va
  • Virginia Beach 64 Nm East Of Virginia Beach, Va

More Historic Weather Station data

Upgrade to MSW Pro to gain access to the past 30 days of data for over 8000 Wavebouys and Weather Stations around the globe.

Join Pro

Comparision Forecast

View Surf forecast
   
Fri 03/27 7:50am 7.5ft 9s 7s 25 29 mph 1004.5mb 51f 50f
6:50am 8ft 9s 7s 16 20 mph 1004.4mb 52f 50f
5:50am 7ft 10s 7s 18 20 mph 1002.8mb 52f 57f
4:50am 8ft 10s 7s 16 18 mph 1003.3mb 51f 56f
3:50am 7ft 8s 6s 16 18 mph 1004.4mb 51f 56f
2:50am 8ft 9s 7s 16 18 mph 1005.5mb 51f 56f
1:50am 8.5ft 9s 7s 16 20 mph 1006.5mb 51f 56f
12:50am 8.5ft 8s 6s 18 20 mph 1006.9mb 51f 56f
Thu 03/26 11:50pm 9ft 8s 6s 22 25 mph 1006.9mb 51f 57f
10:50pm 9.5ft 9s 6s 22 25 mph 1007.5mb 51f 57f
9:50pm 10.5ft 9s 7s 25 27 mph 1007.5mb 51f 57f
8:50pm 10.5ft 9s 7s 25 29 mph 1007.6mb 51f 59f
7:50pm 10.5ft 10s 7s 25 29 mph 1007mb 51f 59f
6:50pm 10ft 9s 7s 22 27 mph 1007.5mb 51f 59f
5:50pm 9ft 9s 6s 29 36 mph 1007.3mb 52f 61f
4:50pm 8.5ft 8s 6s 27 31 mph 1007.7mb 53f 61f
3:50pm 7ft 8s 6s 25 29 mph 1008.8mb 54f 62f
2:50pm 7ft 8s 5s 22 25 mph 1010.8mb 54f 61f
1:50pm 7ft 8s 5s 31 38 mph 1010.4mb 54f 62f
12:50pm 7ft 7s 5s 25 31 mph 1013.8mb 55f 62f
11:50am 6ft 7s 5s 27 29 mph 1014.7mb 54f 62f
10:50am 6ft 7s 5s 25 29 mph 1015.4mb 54f 61f
9:50am 5.5ft 7s 5s 20 25 mph 1016.4mb 54f 61f
8:50am 5.5ft 7s 5s 20 22 mph 1017.3mb 54f 60f
7:50am 5ft 7s 5s 18 20 mph 1017.8mb 53f 60f
6:50am 5ft 6s 5s 16
mph
1018mb 53f 59f
5:50am 4.5ft 7s 5s 16 20 mph 1017.9mb 53f 60f
4:50am 4.5ft 7s 5s 16 18 mph 1018.8mb 54f 60f
3:50am 4.5ft 6s 5s 16 18 mph 1019.8mb 54f 60f
2:50am 4.5ft 7s 5s 16 18 mph 1020.6mb 54f 60f
1:50am 3.5ft 7s 5s 13 16 mph 1021.4mb 55f 59f
12:50am 3.5ft 6s 5s 11 13 mph 1022.3mb 55f 58f
Wed 03/25 11:50pm 3.5ft 6s 5s 13 16 mph 1022.9mb 55f 58f
10:50pm 4ft 6s 5s 11 13 mph 1023mb 55f 59f
9:50pm 4ft 6s 6s 11
mph
1022.9mb 56f 59f
8:50pm 3.5ft 6s 5s 11
mph
1022.8mb 56f 59f
7:50pm 4ft 6s 5s 11 13 mph 1023.2mb 56f 59f
6:50pm 4ft 6s 5s 11 13 mph 1023.5mb 56f 60f
5:50pm 3.5ft 7s 5s 11 13 mph 1023.5mb 56f 59f
4:50pm 3.5ft 7s 5s 9
mph
1023.8mb 56f 59f
3:50pm 4ft 6s 5s 9
mph
1024.2mb 56f 60f
2:50pm 4ft 5s 5s 13 16 mph 1024.8mb 56f 60f
1:50pm 4ft 4s 4s 18 20 mph 1025.4mb 56f 59f
12:50pm 3.5ft 4s 4s 20 22 mph 1025.6mb 56f 58f
11:50am 3.5ft 5s 4s 18 22 mph 1026.4mb 56f 58f
10:50am 3.5ft 4s 4s 18 22 mph 1026.8mb 57f 57f
9:50am 3.5ft 5s 4s 20 22 mph 1026.6mb 56f 55f
8:50am 3.5ft 5s 4s 18 22 mph 1027mb 55f 54f
7:50am 3.5ft 5s 4s 16 20 mph 1027mb 55f 53f
6:50am 4ft 5s 4s 18 22 mph 1026.8mb 55f 53f
5:50am 4ft 5s 5s 18 22 mph 1026.4mb 55f 52f
4:50am 4ft 5s 5s 16 20 mph 1026.6mb 55f 52f
3:50am 4ft 5s 5s 16 20 mph 1026.7mb 55f 52f
2:50am 4.5ft 5s 5s 18 20 mph 1026.7mb 55f 52f
1:50am 4.5ft 6s 5s 16 20 mph 1026.9mb 55f 52f
12:50am 4.5ft 6s 5s 18 20 mph 1026.7mb 55f 51f
Tue 03/24 11:50pm 4.5ft 6s 5s 18 22 mph 1026.6mb 55f 51f
10:50pm 4.5ft 6s 5s 20 25 mph 1026.6mb 55f 51f
9:50pm 4.5ft 6s 5s 18 25 mph 1026.6mb 55f 52f
8:50pm 4.5ft 6s 5s 20 25 mph 1026mb 55f 53f
7:50pm 4ft 5s 5s 18 22 mph 1025.4mb 55f 53f
6:50pm 4ft 6s 5s 13 18 mph 1024.9mb 55f 53f
5:50pm 3.5ft 5s 5s 11 16 mph 1024.1mb 55f 53f
4:50pm 3.5ft 5s 5s 13 16 mph 1023.9mb 55f 53f
3:50pm 3.5ft 7s 5s 11 13 mph 1024mb 55f 53f
2:50pm 3.5ft 6s 5s 11 13 mph 1023.7mb 55f 52f
1:50pm 3.5ft 7s 5s 9 13 mph 1023.9mb 56f 52f
12:50pm 3.5ft 7s 5s 11 13 mph 1024.4mb 56f 51f
11:50am 3.5ft 7s 5s 11 16 mph 1024.7mb 56f 51f
10:50am 3.5ft 7s 5s 11 16 mph 1024.5mb 56f 51f
9:50am 3.5ft 7s 5s 13 18 mph 1024mb 55f 50f
8:50am 3.5ft 7s 5s 16 18 mph 1023.6mb 55f 50f
7:50am 3.5ft 6s 5s 16 18 mph 1023.3mb 55f 49f
6:50am 3.5ft 7s 5s 16 18 mph 1022.5mb 55f 49f
5:50am 3.5ft 6s 5s 16 18 mph 1022.3mb 55f 48f
4:50am 4ft 5s 5s 16 20 mph 1022.4mb 55f 48f
3:50am 4ft 6s 5s 16 20 mph 1022.5mb 55f 48f
2:50am 4ft 7s 5s 13 18 mph 1022.1mb 56f 48f
12:50am 4.5ft 7s 5s 16 20 mph 1021.7mb 56f 47f
Mon 03/23 11:50pm 4.5ft 5s 5s 16 20 mph 1021.8mb 56f 47f
10:50pm 4.5ft 7s 5s 16 20 mph 1022.2mb 55f 47f
9:50pm 4.5ft 7s 5s 18 22 mph 1022.2mb 55f 46f
8:50pm 5ft 7s 5s 20 22 mph 1021.8mb 54f 46f
7:50pm 5ft 7s 5s 20 25 mph 1021.5mb 54f 46f
6:50pm 5.5ft 7s 5s 20 25 mph 1021mb 51f 47f
5:50pm 6ft 7s 5s 22 27 mph 1020.5mb 51f 47f
4:50pm 6ft 7s 5s 20 27 mph 1020.4mb 46f 47f
3:50pm 6.5ft 7s 5s 20 22 mph 1020.3mb 46f 47f
2:50pm 7ft 6s 5s 20 25 mph 1020.3mb 47f 47f
1:50pm 6ft 6s 5s 22 29 mph 1020.5mb 47f 48f